Time;durP1;ratioP1;P1;durP2;ratioP2;P2;SDS_P1;SDS_P2;PMS_P1;PMS_P2;Temp;Humidity;BMP_temperature;BMP_pressure;BME280_temperature;BME280_humidity;BME280_pressure;Samples;Min_cycle;Max_cycle;Signal;HPM_P1;HPM_P2
2021/12/28 00:01:03;;;;;;;;;30.50;28.25;;;;;13.47;56.23;97861.69;4886971;28;103270;-87
2021/12/28 00:03:31;;;;;;;;;36.00;30.25;;;;;13.58;56.69;97857.31;4881239;28;102215;-87
2021/12/28 00:05:59;;;;;;;;;32.50;28.75;;;;;13.65;55.90;97855.28;4885255;28;103362;-87
2021/12/28 00:08:26;;;;;;;;;34.75;27.75;;;;;13.76;55.80;97851.72;4884370;28;103879;-87
2021/12/28 00:10:55;;;;;;;;;28.75;26.25;;;;;13.83;56.37;97852.41;4880087;28;102382;-86
2021/12/28 00:13:22;;;;;;;;;31.50;26.75;;;;;13.93;56.38;97843.63;4870186;28;103672;-85
2021/12/28 00:16:12;;;;;;;;;28.75;26.00;;;;;14.00;55.88;97844.34;4882223;28;103604;-87
2021/12/28 00:18:37;;;;;;;;;30.75;27.50;;;;;14.08;55.53;97843.97;4883080;28;104139;-86
2021/12/28 00:21:05;;;;;;;;;30.00;27.75;;;;;14.16;55.17;97838.97;4885881;28;102115;-87
2021/12/28 00:23:41;;;;;;;;;25.50;24.00;;;;;14.25;54.72;97833.97;4880976;28;103249;-87
2021/12/28 00:26:09;;;;;;;;;32.00;28.50;;;;;14.33;54.50;97836.28;4884808;28;102820;-87
2021/12/28 00:28:36;;;;;;;;;31.50;25.25;;;;;14.40;55.01;97825.28;4866739;28;103412;-87
2021/12/28 00:31:03;;;;;;;;;29.00;23.25;;;;;14.46;54.13;97827.84;4883787;28;102463;-87
2021/12/28 00:33:30;;;;;;;;;25.00;24.25;;;;;14.54;54.40;97829.38;4870168;28;101946;-87
2021/12/28 00:35:57;;;;;;;;;25.25;20.00;;;;;14.60;54.25;97821.03;4882960;28;102157;-87
2021/12/28 00:38:25;;;;;;;;;27.50;22.75;;;;;14.67;53.67;97821.72;4880372;28;104179;-87
2021/12/28 00:40:56;;;;;;;;;29.50;23.50;;;;;14.73;53.97;97812.53;4883738;28;103504;-87
2021/12/28 00:43:24;;;;;;;;;24.00;22.00;;;;;14.79;53.43;97816.19;4879838;28;101866;-87
2021/12/28 00:45:51;;;;;;;;;23.50;21.75;;;;;14.85;53.40;97820.66;4888300;28;102079;-87
2021/12/28 00:48:18;;;;;;;;;22.25;21.00;;;;;14.91;53.30;97819.63;4882136;28;103676;-87
2021/12/28 00:50:45;;;;;;;;;22.75;21.25;;;;;14.95;53.40;97818.06;4883547;28;102265;-87
2021/12/28 00:53:12;;;;;;;;;23.50;20.25;;;;;15.01;52.94;97816.25;4886473;28;101691;-87
2021/12/28 00:55:40;;;;;;;;;19.50;18.75;;;;;15.05;52.55;97829.13;4881807;28;102059;-87
2021/12/28 00:58:07;;;;;;;;;23.25;20.75;;;;;15.08;52.78;97825.91;4883628;28;103907;-87
2021/12/28 01:00:36;;;;;;;;;27.50;24.25;;;;;15.12;52.43;97813.47;4883019;28;102140;-87
2021/12/28 01:03:04;;;;;;;;;20.00;18.25;;;;;15.17;52.36;97799.91;4883185;28;103678;-87
2021/12/28 01:05:31;;;;;;;;;26.00;21.25;;;;;15.22;52.26;97803.78;4887803;28;101877;-87
2021/12/28 01:07:58;;;;;;;;;25.50;21.50;;;;;15.26;52.25;97807.66;4864871;28;103446;-87
2021/12/28 01:10:34;;;;;;;;;19.00;17.50;;;;;15.29;52.05;97807.16;4869249;28;102098;-87
2021/12/28 01:13:02;;;;;;;;;27.00;21.25;;;;;15.33;51.68;97800.94;4870776;28;102039;-87
2021/12/28 01:15:30;;;;;;;;;20.50;19.50;;;;;15.36;51.82;97797.72;4884414;28;102101;-87
2021/12/28 01:17:58;;;;;;;;;25.00;21.75;;;;;15.42;51.66;97809.50;4879473;28;103423;-87
2021/12/28 01:20:25;;;;;;;;;23.25;18.00;;;;;15.45;51.47;97800.81;4881606;28;102041;-87
2021/12/28 01:22:52;;;;;;;;;19.50;19.25;;;;;15.48;51.02;97812.06;4868851;28;102248;-87
2021/12/28 01:25:20;;;;;;;;;19.50;16.75;;;;;15.48;50.88;97794.91;4887883;28;102206;-88
2021/12/28 01:27:47;;;;;;;;;19.00;17.75;;;;;15.53;50.95;97803.19;4877245;28;103394;-90
2021/12/28 01:30:17;;;;;;;;;22.75;19.25;;;;;15.55;51.07;97796.38;4886181;28;102106;-87
2021/12/28 01:32:46;;;;;;;;;23.75;18.75;;;;;15.57;51.07;97794.25;4878724;28;101987;-87
2021/12/28 01:35:14;;;;;;;;;20.25;18.75;;;;;15.59;50.86;97786.63;4885533;28;103152;-87
2021/12/28 01:37:42;;;;;;;;;19.75;16.50;;;;;15.62;50.63;97790.75;4882372;28;103471;-87
2021/12/28 01:40:11;;;;;;;;;21.25;19.75;;;;;15.64;51.04;97791.31;4878945;28;102926;-87
2021/12/28 01:43:12;;;;;;;;;20.25;18.00;;;;;15.66;50.58;97781.00;4859300;28;102091;-87
2021/12/28 01:45:53;;;;;;;;;21.50;18.75;;;;;15.66;50.73;97775.56;4850478;28;102246;-87
2021/12/28 01:48:22;;;;;;;;;27.00;19.00;;;;;15.69;50.00;97772.31;4857947;28;102906;-87
2021/12/28 01:50:50;;;;;;;;;17.00;17.00;;;;;15.72;50.35;97769.06;4857418;28;102084;-87
2021/12/28 01:53:18;;;;;;;;;21.25;18.75;;;;;15.74;51.06;97768.81;4861564;28;102006;-87
2021/12/28 01:55:46;;;;;;;;;18.50;14.25;;;;;15.77;50.20;97771.03;4855921;28;103400;-87
2021/12/28 01:58:14;;;;;;;;;20.00;18.75;;;;;15.79;50.28;97769.72;4856435;28;103396;-87
2021/12/28 02:00:43;;;;;;;;;21.25;19.75;;;;;15.81;50.58;97763.97;4859263;28;103770;-87
2021/12/28 02:03:16;;;;;;;;;22.75;19.00;;;;;15.84;50.33;97767.06;4839575;28;102130;-87
2021/12/28 02:05:43;;;;;;;;;20.75;17.00;;;;;15.85;49.83;97768.66;4856936;28;102322;-87
2021/12/28 02:08:12;;;;;;;;;20.25;20.00;;;;;15.87;50.18;97773.88;4853512;28;102501;-87
2021/12/28 02:10:45;;;;;;;;;19.75;18.00;;;;;15.90;49.64;97779.63;4852674;28;102152;-87
2021/12/28 02:13:12;;;;;;;;;21.00;15.75;;;;;15.92;50.31;97772.03;4863462;28;102289;-87
2021/12/28 02:15:40;;;;;;;;;16.00;15.50;;;;;15.94;50.03;97769.88;4843435;28;102356;-87
2021/12/28 02:18:08;;;;;;;;;20.25;18.00;;;;;15.96;49.54;97758.72;4860553;28;103477;-87
2021/12/28 02:20:36;;;;;;;;;18.75;16.00;;;;;15.98;49.36;97771.03;4848228;28;102170;-87
2021/12/28 02:23:03;;;;;;;;;18.50;17.75;;;;;15.98;49.16;97764.75;4863816;28;102304;-86
2021/12/28 02:25:31;;;;;;;;;25.25;17.75;;;;;16.02;49.42;97768.63;4867756;28;103903;-87
2021/12/28 02:27:59;;;;;;;;;18.00;15.00;;;;;16.04;49.82;97767.25;4869565;28;103450;-87
2021/12/28 02:30:26;;;;;;;;;18.75;16.75;;;;;16.07;49.75;97766.75;4867236;28;103225;-87
2021/12/28 02:32:53;;;;;;;;;21.75;17.25;;;;;16.08;49.06;97768.41;4862966;28;102248;-87
2021/12/28 02:35:22;;;;;;;;;19.00;16.00;;;;;16.11;49.14;97771.69;4872780;28;102297;-87
2021/12/28 02:37:50;;;;;;;;;16.75;13.25;;;;;16.12;49.46;97767.91;4847066;28;103504;-87
2021/12/28 02:40:20;;;;;;;;;20.50;16.50;;;;;16.16;49.65;97774.47;4864433;28;102556;-86
2021/12/28 02:42:47;;;;;;;;;15.25;14.25;;;;;16.18;48.93;97772.31;4870766;28;103301;-87
2021/12/28 02:45:22;;;;;;;;;15.00;13.00;;;;;16.18;49.43;97761.41;4846398;28;102161;-87
2021/12/28 02:47:50;;;;;;;;;19.25;13.00;;;;;16.18;49.09;97755.94;4864713;28;103531;-87
2021/12/28 02:50:28;;;;;;;;;21.00;17.75;;;;;16.17;49.04;97749.66;4863967;28;102240;-87
2021/12/28 02:52:55;;;;;;;;;19.50;15.00;;;;;16.21;49.47;97750.78;4865113;28;102240;-87
2021/12/28 02:55:23;;;;;;;;;18.75;17.00;;;;;16.21;48.85;97756.25;4867211;28;102218;-87
2021/12/28 02:57:53;;;;;;;;;17.50;16.50;;;;;16.21;49.34;97753.50;4866204;28;103393;-87
2021/12/28 03:00:36;;;;;;;;;15.50;13.75;;;;;16.22;49.11;97752.44;4863086;28;102187;-87
2021/12/28 03:03:11;;;;;;;;;17.25;16.25;;;;;16.24;48.67;97754.94;4863459;28;102657;-88
2021/12/28 03:05:41;;;;;;;;;20.50;17.75;;;;;16.25;48.65;97749.22;4852739;28;102638;-87
2021/12/28 03:08:09;;;;;;;;;16.50;14.75;;;;;16.28;48.69;97736.97;4866109;28;103539;-87
2021/12/28 03:10:36;;;;;;;;;16.00;14.75;;;;;16.29;49.16;97741.34;4863555;28;101922;-87
2021/12/28 03:13:03;;;;;;;;;10.50;6.75;;;;;16.31;48.63;97741.88;4868293;28;102612;-87
2021/12/28 03:15:31;;;;;;;;;15.50;15.00;;;;;16.33;48.45;97753.38;4864915;28;102464;-87
2021/12/28 03:17:58;;;;;;;;;13.25;12.00;;;;;16.33;49.06;97748.75;4864912;28;103795;-87
2021/12/28 03:20:25;;;;;;;;;16.75;15.00;;;;;16.35;48.60;97748.47;4868265;28;101903;-88
2021/12/28 03:22:52;;;;;;;;;17.50;16.25;;;;;16.34;48.11;97744.94;4851628;28;101973;-87
2021/12/28 03:25:19;;;;;;;;;17.75;14.00;;;;;16.35;48.55;97734.81;4864496;28;102135;-86
2021/12/28 03:27:46;;;;;;;;;15.50;13.50;;;;;16.36;48.77;97731.03;4864064;28;103369;-87
2021/12/28 03:30:14;;;;;;;;;13.75;13.50;;;;;16.37;48.52;97724.50;4864133;28;103292;-87
2021/12/28 03:32:41;;;;;;;;;14.00;13.25;;;;;16.37;48.22;97717.13;4862217;28;102583;-87
2021/12/28 03:35:09;;;;;;;;;12.75;12.75;;;;;16.38;48.80;97726.16;4870083;28;103629;-87
2021/12/28 03:37:36;;;;;;;;;17.25;14.25;;;;;16.38;48.32;97728.88;4861388;28;103398;-87
2021/12/28 03:40:10;;;;;;;;;16.00;14.00;;;;;16.38;48.06;97728.88;4859355;28;102183;-87
2021/12/28 03:42:37;;;;;;;;;17.75;12.00;;;;;16.38;48.50;97728.88;4865954;28;102033;-87
2021/12/28 03:45:05;;;;;;;;;14.75;13.75;;;;;16.40;48.26;97729.41;4868587;28;101753;-87
2021/12/28 03:47:32;;;;;;;;;15.75;14.25;;;;;16.38;47.80;97739.78;4862654;28;103383;-87
2021/12/28 03:50:00;;;;;;;;;16.25;15.25;;;;;16.39;48.03;97735.97;4866638;28;103680;-87
2021/12/28 03:52:31;;;;;;;;;15.00;13.25;;;;;16.41;47.98;97739.25;4864040;28;102404;-88
2021/12/28 03:54:58;;;;;;;;;15.50;13.00;;;;;16.42;47.72;97738.19;4864906;28;102553;-87
2021/12/28 03:57:25;;;;;;;;;15.50;14.25;;;;;16.41;47.94;97745.53;4863870;28;103498;-87
2021/12/28 03:59:52;;;;;;;;;5.25;3.25;;;;;16.41;47.95;97734.63;4862936;28;104327;-87
2021/12/28 04:02:19;;;;;;;;;12.00;11.50;;;;;16.40;47.69;97737.59;4861100;28;101983;-87
2021/12/28 04:04:46;;;;;;;;;17.75;16.00;;;;;16.41;47.73;97722.88;4865320;28;103134;-87
2021/12/28 04:07:18;;;;;;;;;12.50;12.25;;;;;16.41;48.15;97728.34;4858737;28;103573;-87
2021/12/28 04:09:59;;;;;;;;;14.50;13.00;;;;;16.41;47.69;97717.44;4863234;28;102168;-87
2021/12/28 04:12:26;;;;;;;;;16.25;14.50;;;;;16.39;47.02;97733.25;4868433;28;102176;-87
2021/12/28 04:14:53;;;;;;;;;15.50;14.25;;;;;16.40;47.33;97732.16;4862205;28;102295;-87
2021/12/28 04:17:20;;;;;;;;;12.25;10.75;;;;;16.39;47.29;97728.59;4865578;28;103970;-87
2021/12/28 04:19:47;;;;;;;;;14.25;11.00;;;;;16.38;47.33;97734.34;4860185;28;102133;-87
2021/12/28 04:22:15;;;;;;;;;12.50;11.25;;;;;16.37;47.44;97736.22;4864670;28;103153;-87
2021/12/28 04:24:42;;;;;;;;;14.25;12.50;;;;;16.38;47.28;97739.78;4865851;28;101715;-87
2021/12/28 04:27:22;;;;;;;;;15.00;13.00;;;;;16.37;47.61;97738.97;4862765;28;104779;-87
2021/12/28 04:29:49;;;;;;;;;14.25;14.00;;;;;16.37;47.54;97738.97;4867355;28;101847;-87
2021/12/28 04:32:16;;;;;;;;;15.00;13.50;;;;;16.38;47.34;97742.50;4862722;28;101815;-87
2021/12/28 04:34:47;;;;;;;;;9.75;8.00;;;;;16.38;46.82;97739.78;4866607;28;102058;-87
2021/12/28 04:37:14;;;;;;;;;13.75;10.75;;;;;16.37;47.34;97738.97;4863946;28;103443;-87
2021/12/28 04:39:41;;;;;;;;;13.75;12.00;;;;;16.36;46.76;97739.22;4862680;28;101763;-87
2021/12/28 04:42:08;;;;;;;;;14.00;13.25;;;;;16.37;46.60;97732.69;4866229;28;102977;-87
2021/12/28 04:44:35;;;;;;;;;14.25;12.25;;;;;16.35;46.96;97723.91;4865988;28;102086;-88
2021/12/28 04:47:02;;;;;;;;;14.50;11.75;;;;;16.34;47.57;97734.03;4847386;28;103606;-87
2021/12/28 04:49:29;;;;;;;;;14.25;12.25;;;;;16.33;47.50;97734.28;4865360;28;102336;-86
2021/12/28 04:51:56;;;;;;;;;15.25;11.50;;;;;16.32;46.73;97729.91;4862761;28;101954;-87
2021/12/28 04:54:23;;;;;;;;;14.50;12.00;;;;;16.31;46.64;97720.06;4868513;28;102308;-87
2021/12/28 04:56:51;;;;;;;;;14.50;12.25;;;;;16.31;46.57;97733.69;4863977;28;104063;-87
2021/12/28 04:59:18;;;;;;;;;14.50;11.75;;;;;16.30;47.46;97732.88;4861300;28;102049;-87
2021/12/28 05:01:45;;;;;;;;;12.75;12.25;;;;;16.30;46.52;97732.06;4864185;28;101961;-87
2021/12/28 05:04:13;;;;;;;;;17.50;13.00;;;;;16.28;46.95;97734.22;4867404;28;103571;-87
2021/12/28 05:06:40;;;;;;;;;13.75;12.25;;;;;16.29;46.74;97730.44;4863776;28;103392;-87
2021/12/28 05:09:10;;;;;;;;;15.25;14.00;;;;;16.28;46.52;97726.03;4859282;28;102291;-87
2021/12/28 05:11:38;;;;;;;;;13.25;12.00;;;;;16.28;46.55;97728.78;4868059;28;102171;-87
2021/12/28 05:14:06;;;;;;;;;13.50;10.25;;;;;16.28;46.83;97732.31;4863201;28;103536;-87
2021/12/28 05:16:34;;;;;;;;;13.50;12.25;;;;;16.27;46.88;97727.13;4868621;28;103482;-87
2021/12/28 05:19:02;;;;;;;;;12.75;12.00;;;;;16.25;46.77;97721.94;4869809;28;101746;-87
2021/12/28 05:21:30;;;;;;;;;11.00;10.25;;;;;16.25;46.50;97726.56;4842389;28;102396;-87
2021/12/28 05:23:57;;;;;;;;;16.75;14.50;;;;;16.23;47.07;97723.25;4859280;28;102216;-87
2021/12/28 05:26:24;;;;;;;;;11.25;8.00;;;;;16.22;46.29;97724.34;4865762;28;103483;-87
2021/12/28 05:28:51;;;;;;;;;12.75;12.25;;;;;16.20;47.04;97729.25;4864954;28;102287;-86
2021/12/28 05:31:21;;;;;;;;;16.00;14.00;;;;;16.20;46.46;97726.53;4861575;28;102325;-87
2021/12/28 05:33:48;;;;;;;;;13.75;11.75;;;;;16.18;46.99;97723.22;4867903;28;102185;-88
2021/12/28 05:36:15;;;;;;;;;14.75;13.00;;;;;16.18;46.88;97734.94;4860388;28;103151;-87
2021/12/28 05:38:42;;;;;;;;;13.50;11.25;;;;;16.17;46.74;97724.28;4860145;28;103233;-88
2021/12/28 05:41:09;;;;;;;;;12.25;10.25;;;;;16.16;46.66;97730.84;4865538;28;102247;-87
2021/12/28 05:43:36;;;;;;;;;15.75;13.25;;;;;16.14;46.91;97716.63;4869144;28;103056;-88
2021/12/28 05:46:03;;;;;;;;;13.00;12.00;;;;;16.15;46.06;97723.75;4862360;28;103592;-87
2021/12/28 05:48:31;;;;;;;;;14.75;12.00;;;;;16.15;46.54;97729.19;4867253;28;101995;-87
2021/12/28 05:50:58;;;;;;;;;14.50;12.50;;;;;16.16;46.60;97722.66;4862194;28;102551;-87
2021/12/28 05:53:25;;;;;;;;;14.75;14.25;;;;;16.13;46.25;97721.25;4860347;28;101957;-87
2021/12/28 05:55:52;;;;;;;;;13.75;11.00;;;;;16.14;46.78;97705.72;4866612;28;103866;-87
2021/12/28 05:58:19;;;;;;;;;13.00;13.00;;;;;16.14;46.47;97708.44;4858955;28;102501;-87
2021/12/28 06:00:46;;;;;;;;;15.25;13.50;;;;;16.12;46.48;97719.59;4863657;28;103599;-87
2021/12/28 06:03:13;;;;;;;;;13.25;12.50;;;;;16.10;46.10;97729.13;4866635;28;103316;-87
2021/12/28 06:05:40;;;;;;;;;15.75;12.75;;;;;16.10;46.61;97729.13;4859391;28;103351;-87
2021/12/28 06:08:08;;;;;;;;;15.75;14.00;;;;;16.08;46.45;97713.84;4847546;28;102213;-87
2021/12/28 06:10:55;;;;;;;;;15.50;12.00;;;;;16.08;46.52;97713.84;4864359;28;102046;-87
2021/12/28 06:13:23;;;;;;;;;19.00;13.50;;;;;16.05;45.89;97708.91;4860940;28;102180;-87
2021/12/28 06:15:50;;;;;;;;;13.25;12.00;;;;;16.05;45.84;97719.00;4864351;28;104434;-87
2021/12/28 06:18:17;;;;;;;;;18.75;14.00;;;;;16.05;45.95;97724.47;4862533;28;101704;-88
2021/12/28 06:20:45;;;;;;;;;15.00;14.00;;;;;16.03;46.01;97716.53;4858382;28;101828;-87
2021/12/28 06:23:12;;;;;;;;;13.00;12.75;;;;;16.02;45.92;97719.53;4870161;28;101772;-87
2021/12/28 06:25:39;;;;;;;;;12.25;11.75;;;;;16.03;45.85;97724.69;4850374;28;103567;-87
2021/12/28 06:28:06;;;;;;;;;13.00;12.75;;;;;16.02;46.27;97724.97;4859344;28;103324;-87
2021/12/28 06:30:33;;;;;;;;;12.00;11.00;;;;;15.99;45.86;97720.84;4866394;28;102228;-87
2021/12/28 06:33:00;;;;;;;;;13.00;12.00;;;;;16.00;46.09;97722.50;4866882;28;102582;-87
2021/12/28 06:35:27;;;;;;;;;7.25;6.00;;;;;16.01;46.22;97723.31;4862776;28;103601;-87
2021/12/28 06:37:55;;;;;;;;;11.75;11.75;;;;;16.00;46.26;97724.41;4864558;28;102179;-87
2021/12/28 06:40:22;;;;;;;;;16.00;13.25;;;;;15.98;46.14;97724.69;4863891;28;103003;-87
2021/12/28 06:42:49;;;;;;;;;14.50;12.25;;;;;15.98;46.47;97729.31;4863861;28;101890;-87
2021/12/28 06:45:16;;;;;;;;;13.25;11.75;;;;;15.96;46.54;97729.56;4873168;28;103480;-87
2021/12/28 06:47:43;;;;;;;;;16.75;12.00;;;;;15.97;46.27;97733.94;4867802;28;102002;-86
2021/12/28 06:50:11;;;;;;;;;14.00;13.75;;;;;15.95;45.90;97741.53;4851242;28;101782;-87
2021/12/28 06:52:38;;;;;;;;;13.25;11.50;;;;;15.94;46.38;97739.09;4865362;28;103578;-87
2021/12/28 06:55:08;;;;;;;;;16.75;13.00;;;;;15.92;46.00;97733.88;4869572;28;104220;-87
2021/12/28 06:57:37;;;;;;;;;11.00;10.00;;;;;15.92;46.28;97720.25;4868638;28;102112;-87
2021/12/28 07:00:09;;;;;;;;;12.50;12.00;;;;;15.91;46.29;97724.03;4873557;28;102199;-87
2021/12/28 07:02:38;;;;;;;;;15.00;14.25;;;;;15.89;46.34;97722.66;4871695;28;102093;-87
2021/12/28 07:05:06;;;;;;;;;11.50;11.00;;;;;15.89;45.92;97726.22;4873229;28;103380;-87
2021/12/28 07:07:33;;;;;;;;;14.00;11.25;;;;;15.89;46.07;97737.13;4869343;28;104392;-87
2021/12/28 07:10:00;;;;;;;;;12.50;11.50;;;;;15.88;45.79;97740.91;4852286;28;102182;-87
2021/12/28 07:12:27;;;;;;;;;14.50;13.75;;;;;15.88;46.38;97729.19;4852439;28;103590;-86
2021/12/28 07:14:54;;;;;;;;;7.00;7.00;;;;;15.88;46.11;97735.47;4878921;28;104064;-85
2021/12/28 07:17:21;;;;;;;;;13.00;11.75;;;;;15.88;46.19;97738.19;4857481;28;102788;-86
2021/12/28 07:19:48;;;;;;;;;13.50;11.00;;;;;15.87;46.33;97738.44;4865618;28;101970;-85
2021/12/28 07:22:15;;;;;;;;;12.00;11.50;;;;;15.85;46.94;97746.88;4876980;28;103157;-85
2021/12/28 07:24:42;;;;;;;;;11.75;10.00;;;;;15.85;46.70;97746.88;4868708;28;103485;-85
2021/12/28 07:27:09;;;;;;;;;12.00;11.50;;;;;15.86;46.51;97753.97;4871309;28;102147;-86
2021/12/28 07:29:36;;;;;;;;;13.00;11.00;;;;;15.85;46.46;97741.41;4867434;28;102455;-87
2021/12/28 07:32:08;;;;;;;;;16.00;11.75;;;;;15.85;46.97;97752.31;4871692;28;102032;-86
2021/12/28 07:34:35;;;;;;;;;12.75;11.75;;;;;15.83;46.60;97743.59;4870229;28;103344;-85
2021/12/28 07:37:02;;;;;;;;;15.50;13.00;;;;;15.83;46.70;97738.13;4869485;28;102249;-86
2021/12/28 07:39:29;;;;;;;;;14.25;11.25;;;;;15.82;46.51;97741.94;4872735;28;102062;-86
2021/12/28 07:41:56;;;;;;;;;15.00;11.75;;;;;15.84;46.94;97738.97;4874140;28;101833;-86
2021/12/28 07:44:24;;;;;;;;;14.25;10.00;;;;;15.82;47.23;97731.03;4852995;28;103344;-87
2021/12/28 07:46:51;;;;;;;;;13.50;10.75;;;;;15.79;46.70;97737.00;4876532;28;102314;-87
2021/12/28 07:49:18;;;;;;;;;12.00;12.00;;;;;15.82;46.96;97741.94;4868977;28;102222;-87
2021/12/28 07:51:46;;;;;;;;;12.25;12.00;;;;;15.81;46.57;97737.56;4854972;28;103959;-85
2021/12/28 07:54:13;;;;;;;;;13.50;11.00;;;;;15.83;47.15;97731.84;4873659;28;103207;-85
2021/12/28 07:56:40;;;;;;;;;13.50;11.75;;;;;15.81;46.88;97734.00;4870127;28;102329;-84
2021/12/28 07:59:07;;;;;;;;;12.50;9.25;;;;;15.81;46.53;97739.44;4865893;28;102100;-84
2021/12/28 08:01:35;;;;;;;;;17.75;13.00;;;;;15.80;46.98;97733.22;4851074;28;102363;-84
2021/12/28 08:04:03;;;;;;;;;11.75;11.50;;;;;15.79;46.77;97737.00;4849902;28;103405;-83
2021/12/28 08:06:30;;;;;;;;;14.25;11.00;;;;;15.80;47.09;97733.22;4864155;28;102380;-84
2021/12/28 08:08:57;;;;;;;;;11.75;10.75;;;;;15.79;47.03;97742.44;4869439;28;102167;-83
2021/12/28 08:11:24;;;;;;;;;13.50;10.75;;;;;15.77;47.45;97744.59;4868191;28;102052;-84
2021/12/28 08:13:51;;;;;;;;;14.00;10.00;;;;;15.77;46.96;97736.41;4869462;28;103516;-83
2021/12/28 08:16:18;;;;;;;;;12.00;11.75;;;;;15.76;47.01;97732.03;4870967;28;102878;-85
2021/12/28 08:18:47;;;;;;;;;8.00;5.25;;;;;15.75;47.04;97735.88;4868111;28;102297;-84
2021/12/28 08:21:35;;;;;;;;;11.25;10.50;;;;;15.76;47.26;97733.97;4868268;28;102088;-84
2021/12/28 08:24:02;;;;;;;;;14.75;11.25;;;;;15.76;47.06;97732.03;4869371;28;103402;-84
2021/12/28 08:26:29;;;;;;;;;11.00;9.75;;;;;15.76;47.19;97725.78;4851770;28;102067;-84
2021/12/28 08:28:56;;;;;;;;;15.25;14.00;;;;;15.75;47.09;97729.59;4862652;28;102199;-83
2021/12/28 08:31:25;;;;;;;;;11.25;11.25;;;;;15.74;46.68;97725.22;4871434;28;102030;-83
2021/12/28 08:33:52;;;;;;;;;11.50;10.25;;;;;15.74;46.75;97726.03;4872714;28;103507;-83
2021/12/28 08:36:19;;;;;;;;;16.00;13.00;;;;;15.74;46.87;97736.94;4864325;28;103285;-84
2021/12/28 08:38:46;;;;;;;;;14.25;12.00;;;;;15.74;47.14;97728.75;4872383;28;102177;-84
2021/12/28 08:41:13;;;;;;;;;12.50;12.00;;;;;15.73;47.11;97727.09;4866073;28;102283;-84
2021/12/28 08:43:45;;;;;;;;;13.75;13.00;;;;;15.72;46.33;97724.63;4862564;28;103395;-84
2021/12/28 08:46:12;;;;;;;;;11.00;10.00;;;;;15.74;46.70;97727.94;4870058;28;102256;-84
2021/12/28 08:48:40;;;;;;;;;15.00;12.00;;;;;15.72;47.09;97730.91;4867486;28;102028;-84
2021/12/28 08:51:07;;;;;;;;;11.75;11.25;;;;;15.70;46.88;97726.81;4870164;28;102187;-85
2021/12/28 08:53:34;;;;;;;;;13.75;12.00;;;;;15.71;46.36;97728.47;4867372;28;103391;-85
2021/12/28 08:56:01;;;;;;;;;17.25;13.75;;;;;15.68;46.74;97710.69;4870995;28;102231;-85
2021/12/28 08:58:29;;;;;;;;;11.25;10.50;;;;;15.67;46.48;97711.75;4866321;28;102334;-84
2021/12/28 09:00:56;;;;;;;;;17.00;14.75;;;;;15.67;46.20;97716.41;4872193;28;103718;-84
2021/12/28 09:03:24;;;;;;;;;23.50;20.00;;;;;15.67;46.71;97702.78;4866970;28;103681;-84
2021/12/28 09:05:51;;;;;;;;;29.75;26.00;;;;;15.61;46.17;97710.09;4869005;28;101806;-89
2021/12/28 09:08:19;;;;;;;;;29.00;25.25;;;;;15.48;46.46;97713.16;4870688;28;102119;-89
2021/12/28 09:10:46;;;;;;;;;37.75;30.75;;;;;15.41;46.51;97712.50;4855114;28;102229;-89
2021/12/28 09:13:14;;;;;;;;;34.00;28.75;;;;;15.36;46.35;97709.72;4851477;28;103428;-90
2021/12/28 09:15:42;;;;;;;;;34.00;30.00;;;;;15.30;46.61;97708.03;4869651;28;102752;-89
2021/12/28 09:18:09;;;;;;;;;33.25;28.75;;;;;15.24;46.92;97687.25;4866116;28;101828;-87
2021/12/28 09:20:37;;;;;;;;;31.00;28.75;;;;;15.19;46.44;97694.28;4841767;28;101627;-88
2021/12/28 09:23:09;;;;;;;;;32.75;28.25;;;;;15.13;46.44;97700.72;4871284;28;103456;-88
2021/12/28 09:25:36;;;;;;;;;34.75;30.00;;;;;15.09;46.79;97688.69;4867003;28;102486;-88
2021/12/28 09:28:07;;;;;;;;;33.75;28.75;;;;;15.04;46.46;97691.34;4870567;28;103046;-87
2021/12/28 09:30:35;;;;;;;;;40.50;30.50;;;;;15.01;46.78;97682.84;4871179;28;102028;-88
2021/12/28 09:33:03;;;;;;;;;32.75;31.00;;;;;14.96;46.92;97678.16;4869126;28;103669;-88
2021/12/28 09:35:30;;;;;;;;;34.25;29.25;;;;;14.95;46.93;97660.19;4868408;28;101996;-88
2021/12/28 09:37:58;;;;;;;;;34.00;30.25;;;;;14.92;46.78;97662.59;4867757;28;102267;-88
2021/12/28 09:40:31;;;;;;;;;36.75;28.50;;;;;14.88;46.98;97675.88;4869706;28;102082;-88
2021/12/28 09:42:58;;;;;;;;;34.00;29.25;;;;;14.87;46.50;97667.97;4865359;28;103681;-87
2021/12/28 09:45:25;;;;;;;;;34.75;30.50;;;;;14.84;47.01;97676.63;4873743;28;101795;-88
2021/12/28 09:47:52;;;;;;;;;32.25;29.00;;;;;14.81;46.53;97666.25;4849060;28;102335;-89
2021/12/28 09:50:20;;;;;;;;;30.25;26.75;;;;;14.77;47.09;97668.63;4869255;28;102327;-92
2021/12/28 09:52:48;;;;;;;;;29.00;25.50;;;;;14.76;46.80;97671.63;4870489;28;102434;-90
2021/12/28 09:55:20;;;;;;;;;24.50;23.00;;;;;14.73;46.91;97667.50;4850598;28;102265;-89
2021/12/28 09:57:49;;;;;;;;;28.75;26.00;;;;;14.68;47.23;97662.78;4866458;28;102245;-91
2021/12/28 10:00:17;;;;;;;;;31.50;26.50;;;;;14.66;46.54;97651.34;4853761;28;103834;-89
2021/12/28 10:03:05;;;;;;;;;34.75;30.00;;;;;14.64;46.90;97655.38;4866979;28;105194;-89
2021/12/28 10:05:33;;;;;;;;;28.25;26.75;;;;;14.61;47.20;97642.28;4864121;28;101699;-91
2021/12/28 10:08:01;;;;;;;;;27.75;27.25;;;;;14.53;46.93;97635.38;4871213;28;102185;-89
2021/12/28 10:10:36;;;;;;;;;32.00;24.50;;;;;14.54;46.71;97633.50;4869128;28;102152;-89
2021/12/28 10:13:06;;;;;;;;;31.25;27.75;;;;;14.53;46.87;97634.56;4867357;28;103373;-89
2021/12/28 10:15:35;;;;;;;;;29.00;26.50;;;;;14.53;46.82;97631.84;4870582;28;101792;-89
2021/12/28 10:18:05;;;;;;;;;23.25;20.75;;;;;14.48;46.68;97620.88;4865060;28;102303;-90
2021/12/28 10:20:52;;;;;;;;;32.25;26.00;;;;;14.45;47.01;97608.63;4840446;28;103138;-89
2021/12/28 10:23:22;;;;;;;;;27.00;24.50;;;;;14.44;46.86;97606.97;4867080;28;103446;-89
2021/12/28 10:25:53;;;;;;;;;26.50;23.50;;;;;14.43;46.74;97612.66;4865362;28;101850;-89
2021/12/28 10:28:34;;;;;;;;;29.50;23.50;;;;;14.41;47.00;97603.94;4869711;28;102265;-88
2021/12/28 10:31:18;;;;;;;;;29.50;26.25;;;;;14.37;46.83;97595.41;4871997;28;102183;-88
2021/12/28 10:33:45;;;;;;;;;24.25;21.25;;;;;14.35;46.63;97585.84;4871640;28;103692;-88
2021/12/28 10:36:14;;;;;;;;;29.50;24.50;;;;;14.34;46.91;97581.47;4869881;28;102205;-89
2021/12/28 10:38:47;;;;;;;;;28.50;21.50;;;;;14.32;46.50;97586.34;4871491;28;103171;-88
2021/12/28 10:41:16;;;;;;;;;30.00;21.25;;;;;14.32;46.96;97586.34;4869843;28;101945;-88
2021/12/28 10:43:46;;;;;;;;;29.50;23.75;;;;;14.30;46.25;97592.84;4871328;28;103482;-90
2021/12/28 10:46:14;;;;;;;;;26.00;21.25;;;;;14.29;46.91;97583.06;4855309;28;102420;-89
2021/12/28 10:48:46;;;;;;;;;26.75;22.50;;;;;14.28;46.90;97586.84;4878732;28;103440;-89
2021/12/28 10:51:21;;;;;;;;;21.25;19.75;;;;;14.27;46.55;97587.91;4877346;28;101774;-89
2021/12/28 10:56:28;;;;;;;;;29.00;22.50;;;;;14.19;45.88;97584.78;4873847;28;102103;-88
2021/12/28 10:58:55;;;;;;;;;26.25;22.00;;;;;14.20;46.41;97587.25;4870363;28;101725;-89
2021/12/28 11:01:29;;;;;;;;;29.25;24.25;;;;;14.19;46.45;97579.34;4855617;28;101799;-88
2021/12/28 11:04:04;;;;;;;;;27.25;21.50;;;;;14.17;46.30;97582.34;4871031;28;104619;-87
2021/12/28 11:06:35;;;;;;;;;29.75;22.00;;;;;14.17;46.10;97587.78;4870514;28;102452;-91
2021/12/28 11:09:09;;;;;;;;;20.50;19.00;;;;;14.15;46.75;97584.47;4873083;28;102325;-88
2021/12/28 11:11:44;;;;;;;;;24.75;22.00;;;;;14.13;46.55;97580.34;4870619;28;102787;-88
2021/12/28 11:14:18;;;;;;;;;23.50;22.00;;;;;14.12;46.10;97574.09;4869675;28;102287;-88
2021/12/28 11:16:55;;;;;;;;;23.00;19.00;;;;;14.11;45.91;97563.47;4868139;28;102285;-88
2021/12/28 11:19:52;;;;;;;;;25.00;18.50;;;;;14.10;46.12;97550.94;4860248;28;102315;-89